Карточка аэропорта URSS

Внимание!
Информация на этой странице в стадии наполнения.
Если вы не увидели какой-то информации, или заметили неточность - пожалуйста сообщите нам!
Спасибо!
Команда RU-STAFF
Название аэропортаСочи
Название аэропорта (англ.)Sochi
Превышение89 ft. (27.1 m.)
Координаты43°26.634', 39°56.55'
Высота перехода13000 ft
Эшелон переходаFL140 (QNH >= 1013); FL150 (QNH 977-1012); FL160 (QNH < 977)
Коды ответчика1060-1077
Зона ОрВДРостов-на-Дону РПИ (URRV)
Данные METARURSS 270030Z 04004MPS 9999 SCT110 09/07 Q1008 R02/010070 R06/010070 NOSIG RMK R06/32002MPS QFE754
Проноз погоды (TAF)URSS 261955Z 2621/2721 05003G08MPS 9999 BKN006 SCT030CB OVC100 TEMPO 2621/2706 1000 SHRA BR BKN003 BKN030CB BECMG 2706/2707 20003G08MPS TEMPO 2707/2716 1000 BR BKN003 OVC100 BECMG 2716/2717 05003G08MPS SCT010 BKN020
NOTAMshow/hide NOTAM
AWOS   TABLE

Информация о ВПП

ВПП Длина ВПП (м.) Покрытие Курс ВПП Частота ILS
022500Цементобетон22110.5
202500Цементобетон202 
062890Цементобетон58111.1
242890Цементобетон238 

Диспетчерские позиции

Позывной Наименование органа УВД Частота
URSS_FM1119.000
URSS_DELСочи-Деливери132.700
URSS_R_APPСочи-Круг119.700
URSS_APPСочи-Подход124.600
URSS_GNDСочи-Руление119.000
URSS_TWRСочи-Старт121.200



Спутниковое изображение